Time;durP1;ratioP1;P1;durP2;ratioP2;P2;SDS_P1;SDS_P2;PMS_P1;PMS_P2;Temp;Humidity;BMP_temperature;BMP_pressure;BME280_temperature;BME280_humidity;BME280_pressure;Samples;Min_cycle;Max_cycle;Signal;HPM_P1;HPM_P2
2023/08/31 00:01:33;;;;;;;;;8.50;6.00;;;;;13.45;79.49;99100.25;5094649;28;8825;-58
2023/08/31 00:04:01;;;;;;;;;6.75;6.75;;;;;13.44;79.38;99091.38;5094539;28;8806;-58
2023/08/31 00:06:29;;;;;;;;;6.00;5.50;;;;;13.43;78.85;99095.03;5095150;28;8822;-57
2023/08/31 00:08:57;;;;;;;;;6.00;6.00;;;;;13.43;78.87;99088.88;5094547;28;8844;-58
2023/08/31 00:11:25;;;;;;;;;3.00;3.00;;;;;13.42;78.64;99084.50;5094628;28;8924;-57
2023/08/31 00:13:53;;;;;;;;;6.50;6.00;;;;;13.44;79.09;99090.53;5095183;28;8891;-59
2023/08/31 00:16:21;;;;;;;;;6.00;6.00;;;;;13.42;78.79;99085.34;5094557;28;8849;-57
2023/08/31 00:18:49;;;;;;;;;4.00;4.00;;;;;13.43;78.97;99088.88;5094606;28;8982;-58
2023/08/31 00:21:16;;;;;;;;;5.50;5.50;;;;;13.41;79.13;99085.50;5094536;28;9688;-56
2023/08/31 00:23:44;;;;;;;;;6.25;6.00;;;;;13.40;79.54;99083.81;5099311;28;8841;-59
2023/08/31 00:26:12;;;;;;;;;6.00;6.00;;;;;13.35;79.36;99086.16;5098762;28;8826;-58
2023/08/31 00:28:40;;;;;;;;;6.00;6.00;;;;;13.31;79.42;99084.78;5098584;28;8829;-56
2023/08/31 00:31:07;;;;;;;;;6.00;5.50;;;;;13.28;79.55;99080.59;5099053;28;8892;-58
2023/08/31 00:33:35;;;;;;;;;4.00;4.00;;;;;13.26;79.89;99081.75;5098398;28;8826;-59
2023/08/31 00:36:03;;;;;;;;;4.50;4.50;;;;;13.24;79.59;99089.97;5098507;28;8834;-59
2023/08/31 00:38:31;;;;;;;;;4.00;4.00;;;;;13.22;80.00;99075.06;5098648;28;8853;-56
2023/08/31 00:40:58;;;;;;;;;5.00;4.50;;;;;13.19;79.84;99086.91;5099419;28;8908;-57
2023/08/31 00:43:26;;;;;;;;;6.00;6.00;;;;;13.16;79.71;99083.72;5098860;28;8822;-56
2023/08/31 00:45:56;;;;;;;;;4.00;4.00;;;;;13.13;79.98;99073.34;5099290;28;8944;-57
2023/08/31 00:48:24;;;;;;;;;4.00;4.00;;;;;13.12;79.54;99079.66;5098438;28;8822;-57
2023/08/31 00:50:51;;;;;;;;;3.00;1.00;;;;;13.11;80.05;99088.69;5098401;28;8920;-58
2023/08/31 00:53:19;;;;;;;;;6.00;6.00;;;;;13.11;79.41;99086.03;5098060;28;8826;-57
2023/08/31 00:55:47;;;;;;;;;1.50;1.00;;;;;13.10;79.58;99087.03;5098779;28;8814;-59
2023/08/31 00:58:15;;;;;;;;;5.00;3.50;;;;;13.09;79.72;99093.38;5097882;28;8887;-57
2023/08/31 01:00:42;;;;;;;;;5.00;5.00;;;;;13.08;79.62;99086.34;5098462;28;8813;-58
2023/08/31 01:03:10;;;;;;;;;3.50;3.50;;;;;13.09;79.82;99099.56;5098444;28;8826;-58
2023/08/31 01:05:38;;;;;;;;;3.00;1.00;;;;;13.12;79.77;99090.38;5098000;28;9612;-59
2023/08/31 01:08:06;;;;;;;;;3.50;2.75;;;;;13.14;79.86;99096.41;5098372;28;8818;-58
2023/08/31 01:10:34;;;;;;;;;4.00;3.50;;;;;13.14;79.60;99089.22;5098068;28;8798;-59
2023/08/31 01:13:02;;;;;;;;;4.00;4.00;;;;;13.15;79.76;99084.72;5097780;28;8818;-58
2023/08/31 01:15:31;;;;;;;;;0.75;0.50;;;;;13.16;79.89;99091.75;5097768;28;8838;-59
2023/08/31 01:18:00;;;;;;;;;4.50;3.50;;;;;13.17;79.70;99085.38;5097970;28;8834;-59
2023/08/31 01:20:28;;;;;;;;;0.25;0.25;;;;;13.18;79.40;99087.06;5098053;28;8953;-59
2023/08/31 01:22:56;;;;;;;;;2.00;2.00;;;;;13.18;79.56;99089.72;5098341;28;9536;-59
2023/08/31 01:25:24;;;;;;;;;4.00;4.00;;;;;13.16;79.83;99081.03;5098111;28;8880;-59
2023/08/31 01:27:51;;;;;;;;;3.75;3.75;;;;;13.15;79.62;99082.03;5097766;28;8821;-58
2023/08/31 01:30:19;;;;;;;;;4.00;4.00;;;;;13.13;79.97;99094.75;5097610;28;8818;-59
2023/08/31 01:32:47;;;;;;;;;3.75;3.00;;;;;13.11;79.33;99094.88;5097190;28;8829;-59
2023/08/31 01:35:15;;;;;;;;;2.00;2.00;;;;;13.08;79.39;99095.19;5097306;28;8949;-59
2023/08/31 01:37:43;;;;;;;;;3.00;3.00;;;;;13.04;80.16;99101.00;5097327;28;8844;-56
2023/08/31 01:40:11;;;;;;;;;6.00;5.00;;;;;12.98;79.59;99091.78;5091332;28;8813;-59
2023/08/31 01:42:39;;;;;;;;;3.00;3.00;;;;;12.95;79.85;99093.94;5097653;28;8837;-57
2023/08/31 01:45:07;;;;;;;;;4.00;4.00;;;;;12.92;80.16;99096.91;5097686;28;9626;-59
2023/08/31 01:47:34;;;;;;;;;3.25;3.00;;;;;12.89;80.19;99095.38;5097271;28;8948;-58
2023/08/31 01:50:02;;;;;;;;;3.50;3.00;;;;;12.89;79.77;99094.53;5097520;28;8826;-57
2023/08/31 01:52:30;;;;;;;;;6.00;4.00;;;;;12.89;80.05;99107.91;5098004;28;8821;-59
2023/08/31 01:54:58;;;;;;;;;2.50;2.50;;;;;12.86;80.05;99106.41;5097251;28;9501;-58
2023/08/31 01:57:25;;;;;;;;;1.50;1.00;;;;;12.81;79.97;99105.16;5097098;28;8877;-57
2023/08/31 01:59:53;;;;;;;;;1.50;1.00;;;;;12.78;80.26;99105.50;5097162;28;8849;-57
2023/08/31 02:02:20;;;;;;;;;6.00;5.00;;;;;12.75;80.26;99113.84;5097119;28;8828;-59
2023/08/31 02:04:48;;;;;;;;;4.00;4.00;;;;;12.71;80.22;99105.28;5097742;28;8838;-58
2023/08/31 02:07:16;;;;;;;;;3.25;3.25;;;;;12.67;80.77;99103.91;5096656;28;8868;-59
2023/08/31 02:09:43;;;;;;;;;3.75;3.75;;;;;12.63;80.33;99102.56;5097087;28;8893;-56
2023/08/31 02:12:11;;;;;;;;;3.00;3.00;;;;;12.62;80.30;99105.38;5096928;28;8840;-59
2023/08/31 02:14:39;;;;;;;;;6.00;5.50;;;;;12.60;80.77;99110.06;5097323;28;8814;-56
2023/08/31 02:17:06;;;;;;;;;4.50;4.00;;;;;12.55;80.60;99107.81;5096798;28;8852;-58
2023/08/31 02:19:34;;;;;;;;;4.00;4.00;;;;;12.54;80.65;99102.66;5096606;28;8807;-58
2023/08/31 02:22:01;;;;;;;;;5.25;5.00;;;;;12.51;80.35;99100.28;5096984;28;8842;-59
2023/08/31 02:24:29;;;;;;;;;6.75;6.75;;;;;12.50;80.42;99111.94;5096736;28;8826;-57
2023/08/31 02:26:57;;;;;;;;;6.00;6.00;;;;;12.50;80.58;99111.94;5097005;28;8826;-58
2023/08/31 02:29:24;;;;;;;;;5.50;4.50;;;;;12.48;80.62;99106.78;5096434;28;8810;-58
2023/08/31 02:31:52;;;;;;;;;3.50;3.25;;;;;12.47;80.69;99106.94;5096822;28;8830;-59
2023/08/31 02:34:20;;;;;;;;;6.75;6.75;;;;;12.48;80.43;99116.63;5096574;28;8813;-58
2023/08/31 02:36:49;;;;;;;;;7.00;6.50;;;;;12.46;80.39;99115.94;5096614;28;8830;-57
2023/08/31 02:39:16;;;;;;;;;9.00;7.00;;;;;12.44;80.32;99120.56;5095604;28;9490;-59
2023/08/31 02:41:43;;;;;;;;;6.00;6.00;;;;;12.45;80.35;99119.59;5096585;28;9507;-57
2023/08/31 02:44:11;;;;;;;;;7.50;7.00;;;;;12.43;80.82;99108.22;5095149;28;8872;-56
2023/08/31 02:46:39;;;;;;;;;8.00;7.75;;;;;12.39;80.44;99118.38;5096207;28;8984;-56
2023/08/31 02:49:06;;;;;;;;;7.00;6.75;;;;;12.38;80.72;99115.88;5095958;28;8828;-58
2023/08/31 02:51:34;;;;;;;;;8.25;8.25;;;;;12.36;81.03;99118.69;5095962;28;8837;-57
2023/08/31 02:54:03;;;;;;;;;6.25;6.25;;;;;12.34;80.54;99114.47;5096107;28;8826;-58
2023/08/31 02:56:30;;;;;;;;;5.50;5.00;;;;;12.31;80.63;99109.47;5095926;28;8877;-57
2023/08/31 02:58:58;;;;;;;;;5.50;5.50;;;;;12.29;80.76;99106.09;5095285;28;8818;-57
2023/08/31 03:01:26;;;;;;;;;6.00;6.00;;;;;12.27;81.04;99114.28;5096025;28;8834;-58
2023/08/31 03:03:53;;;;;;;;;4.50;3.50;;;;;12.24;80.87;99111.88;5095880;28;8837;-57
2023/08/31 03:06:21;;;;;;;;;5.50;4.00;;;;;12.22;80.96;99123.69;5095839;28;8810;-57
2023/08/31 03:08:49;;;;;;;;;7.50;6.75;;;;;12.19;80.55;99111.53;5095191;28;8834;-56
2023/08/31 03:11:16;;;;;;;;;6.50;5.50;;;;;12.17;80.74;99120.66;5095300;28;8830;-57
2023/08/31 03:13:44;;;;;;;;;7.25;6.50;;;;;12.15;80.60;99114.66;5095243;28;8810;-56
2023/08/31 03:16:12;;;;;;;;;7.00;7.00;;;;;12.14;80.71;99113.81;5095481;28;8838;-57
2023/08/31 03:18:39;;;;;;;;;5.50;5.50;;;;;12.14;81.04;99118.28;5094446;28;8826;-59
2023/08/31 03:21:07;;;;;;;;;8.25;6.50;;;;;12.16;81.11;99113.66;5095157;28;8820;-58
2023/08/31 03:23:35;;;;;;;;;4.00;3.75;;;;;12.16;80.42;99121.66;5095346;28;8807;-57
2023/08/31 03:26:03;;;;;;;;;5.50;4.00;;;;;12.19;80.52;99124.00;5095215;28;8817;-58
2023/08/31 03:28:30;;;;;;;;;8.25;6.50;;;;;12.20;80.35;99123.88;5094767;28;8812;-57
2023/08/31 03:30:58;;;;;;;;;5.00;5.00;;;;;12.22;81.00;99121.88;5095204;28;8818;-59
2023/08/31 03:33:27;;;;;;;;;9.00;8.50;;;;;12.21;80.59;99122.03;5095752;28;8899;-58
2023/08/31 03:35:55;;;;;;;;;8.50;7.00;;;;;12.19;80.52;99119.53;5095259;28;8860;-58
2023/08/31 03:38:22;;;;;;;;;7.50;7.00;;;;;12.18;80.88;99123.19;5095417;28;8818;-57
2023/08/31 03:40:50;;;;;;;;;6.25;5.50;;;;;12.17;80.28;99129.50;5095245;28;8857;-59
2023/08/31 03:43:18;;;;;;;;;6.75;6.25;;;;;12.14;80.58;99119.13;5095009;28;8931;-59
2023/08/31 03:45:45;;;;;;;;;5.50;5.50;;;;;12.12;80.66;99130.94;5094790;28;8838;-57
2023/08/31 03:48:13;;;;;;;;;6.00;5.50;;;;;12.08;80.92;99129.59;5094964;28;8810;-56
2023/08/31 03:50:40;;;;;;;;;5.25;5.25;;;;;12.05;80.59;99136.06;5094971;28;8822;-57
2023/08/31 03:53:08;;;;;;;;;6.00;4.50;;;;;12.04;81.25;99133.53;5094973;28;8968;-57
2023/08/31 03:55:36;;;;;;;;;8.00;7.00;;;;;12.03;81.31;99134.53;5094622;28;9526;-58
2023/08/31 03:58:04;;;;;;;;;6.00;6.00;;;;;12.03;80.90;99134.53;5094479;28;8822;-56
2023/08/31 04:00:32;;;;;;;;;7.50;7.00;;;;;12.02;81.18;99131.00;5094438;28;8810;-58
2023/08/31 04:02:59;;;;;;;;;6.50;6.50;;;;;12.01;80.61;99140.00;5094508;28;8826;-58
2023/08/31 04:05:29;;;;;;;;;7.00;6.00;;;;;12.00;81.36;99138.34;5094385;28;8837;-57
2023/08/31 04:07:57;;;;;;;;;9.00;7.50;;;;;11.99;81.24;99135.81;5094427;28;8826;-57
2023/08/31 04:10:25;;;;;;;;;10.00;9.00;;;;;11.98;81.25;99137.66;5095175;28;9500;-58
2023/08/31 04:12:53;;;;;;;;;6.25;6.00;;;;;11.98;80.81;99138.66;5094399;28;9514;-56
2023/08/31 04:15:20;;;;;;;;;9.25;9.25;;;;;11.96;81.26;99152.13;5094093;28;8850;-57
2023/08/31 04:17:49;;;;;;;;;11.25;9.50;;;;;11.93;80.86;99147.94;5094332;28;8810;-59
2023/08/31 04:20:17;;;;;;;;;9.00;9.00;;;;;11.93;80.63;99155.94;5094451;28;9023;-57
2023/08/31 04:22:44;;;;;;;;;9.50;8.50;;;;;11.92;81.15;99158.78;5094991;28;8840;-59
2023/08/31 04:25:12;;;;;;;;;7.00;7.00;;;;;11.92;80.93;99161.44;5094435;28;8834;-57
2023/08/31 04:27:40;;;;;;;;;11.75;10.00;;;;;11.93;80.73;99162.25;5094339;28;8837;-59
2023/08/31 04:30:08;;;;;;;;;9.00;9.00;;;;;11.98;81.41;99166.16;5094499;28;8821;-56
2023/08/31 04:32:36;;;;;;;;;11.50;11.50;;;;;12.04;80.79;99168.22;5094188;28;8829;-57
2023/08/31 04:35:05;;;;;;;;;9.25;9.00;;;;;12.07;80.65;99175.97;5094067;28;8818;-56
2023/08/31 04:37:32;;;;;;;;;9.25;9.00;;;;;12.13;80.85;99172.66;5093767;28;8847;-56
2023/08/31 04:40:00;;;;;;;;;11.50;9.75;;;;;12.15;80.17;99173.38;5094036;28;9754;-56
2023/08/31 04:42:27;;;;;;;;;10.00;9.50;;;;;12.19;80.69;99180.06;5093641;28;8829;-56
2023/08/31 04:44:55;;;;;;;;;9.00;9.00;;;;;12.21;80.10;99181.59;5093606;28;8840;-56
2023/08/31 04:47:23;;;;;;;;;12.00;10.50;;;;;12.24;80.54;99172.47;5094165;28;8854;-57
2023/08/31 04:49:50;;;;;;;;;4.50;3.50;;;;;12.24;80.23;99177.78;5093884;28;8829;-59
2023/08/31 04:52:18;;;;;;;;;4.50;4.00;;;;;12.24;80.19;99175.94;5094110;28;8818;-55
2023/08/31 04:54:46;;;;;;;;;9.25;9.25;;;;;12.26;80.08;99176.66;5093627;28;8849;-56
2023/08/31 04:57:13;;;;;;;;;12.25;10.00;;;;;12.27;80.34;99177.47;5093678;28;8814;-56
2023/08/31 04:59:41;;;;;;;;;13.50;10.50;;;;;12.27;80.20;99183.69;5093695;28;8845;-56
2023/08/31 05:02:09;;;;;;;;;11.00;10.50;;;;;12.28;80.54;99180.00;5093543;28;9518;-58
2023/08/31 05:04:37;;;;;;;;;9.00;8.25;;;;;12.29;80.26;99178.16;5093168;28;8848;-58
2023/08/31 05:07:04;;;;;;;;;11.50;10.00;;;;;12.28;80.41;99185.34;5093985;28;8817;-58
2023/08/31 05:09:34;;;;;;;;;14.75;12.25;;;;;12.27;80.77;99188.16;5097059;28;8802;-59
2023/08/31 05:12:03;;;;;;;;;11.00;11.00;;;;;12.25;80.48;99192.81;5097191;28;8838;-58
2023/08/31 05:14:30;;;;;;;;;11.50;10.00;;;;;12.24;80.51;99191.97;5096268;28;8830;-58
2023/08/31 05:16:58;;;;;;;;;12.25;10.00;;;;;12.24;80.10;99193.81;5096785;28;8842;-57
2023/08/31 05:19:26;;;;;;;;;12.75;12.75;;;;;12.22;81.01;99196.63;5097127;28;8836;-58
2023/08/31 05:21:54;;;;;;;;;12.75;11.00;;;;;12.22;80.53;99196.63;5096908;28;8833;-56
2023/08/31 05:24:22;;;;;;;;;17.25;15.75;;;;;12.23;80.43;99200.97;5096330;28;8852;-58
2023/08/31 05:26:49;;;;;;;;;19.75;18.00;;;;;12.23;80.27;99210.81;5096365;28;8814;-59
2023/08/31 05:29:17;;;;;;;;;9.00;9.00;;;;;12.25;80.50;99206.16;5096088;28;8814;-58
2023/08/31 05:31:45;;;;;;;;;12.25;11.00;;;;;12.26;80.05;99213.19;5095872;28;8807;-58
2023/08/31 05:34:13;;;;;;;;;15.00;12.50;;;;;12.26;80.37;99203.34;5095270;28;8830;-58
2023/08/31 05:36:41;;;;;;;;;13.50;12.00;;;;;12.30;80.68;99211.91;5095359;28;9507;-58
2023/08/31 05:39:09;;;;;;;;;12.00;10.50;;;;;12.32;80.77;99202.72;5095139;28;8826;-58
2023/08/31 05:41:37;;;;;;;;;6.75;6.75;;;;;12.35;80.31;99214.94;5093653;28;8818;-58
2023/08/31 05:44:04;;;;;;;;;13.50;13.00;;;;;12.40;80.30;99223.34;5094618;28;8996;-56
2023/08/31 05:46:32;;;;;;;;;14.00;13.00;;;;;12.45;80.08;99221.91;5095374;28;8842;-58
2023/08/31 05:49:00;;;;;;;;;12.25;11.00;;;;;12.49;80.07;99217.09;5095443;28;8964;-57
2023/08/31 05:51:28;;;;;;;;;11.00;7.75;;;;;12.53;80.33;99232.66;5094595;28;8826;-58
2023/08/31 05:53:55;;;;;;;;;10.00;9.75;;;;;12.59;79.82;99234.72;5094099;28;8818;-59
2023/08/31 05:56:23;;;;;;;;;11.75;10.50;;;;;12.62;80.09;99226.41;5094062;28;8826;-57
2023/08/31 05:58:54;;;;;;;;;12.50;11.00;;;;;12.68;79.92;99235.66;5095798;28;8855;-58
2023/08/31 06:01:22;;;;;;;;;7.50;6.50;;;;;12.74;79.78;99235.03;5095396;28;9483;-55
2023/08/31 06:03:50;;;;;;;;;10.00;8.00;;;;;12.81;79.59;99246.78;5095431;28;8838;-57
2023/08/31 06:06:18;;;;;;;;;12.00;10.75;;;;;12.88;79.29;99248.72;5095094;28;8964;-59
2023/08/31 06:08:46;;;;;;;;;7.50;5.00;;;;;12.93;79.25;99250.91;5094707;28;8826;-58
2023/08/31 06:11:14;;;;;;;;;10.00;10.00;;;;;12.99;78.90;99250.34;5092914;28;8883;-57
2023/08/31 06:13:41;;;;;;;;;11.00;9.75;;;;;13.06;78.80;99257.56;5093633;28;8826;-58
2023/08/31 06:16:09;;;;;;;;;9.00;7.00;;;;;13.12;79.18;99251.63;5093728;28;8862;-56
2023/08/31 06:18:37;;;;;;;;;14.00;12.00;;;;;13.19;78.60;99250.00;5094240;28;8822;-59
2023/08/31 06:21:04;;;;;;;;;13.00;11.00;;;;;13.29;78.62;99252.59;5093510;28;9904;-56
2023/08/31 06:23:32;;;;;;;;;12.50;11.50;;;;;13.39;78.01;99253.31;5092826;28;8830;-57
2023/08/31 06:26:01;;;;;;;;;6.25;6.25;;;;;13.45;78.28;99250.03;5092615;28;8842;-57
2023/08/31 06:28:29;;;;;;;;;15.00;14.00;;;;;13.45;78.48;99250.84;5092805;28;8850;-56
2023/08/31 06:30:56;;;;;;;;;12.00;11.50;;;;;13.46;78.41;99243.66;5093046;28;8821;-57
2023/08/31 06:33:24;;;;;;;;;13.50;12.50;;;;;13.51;78.07;99241.38;5093125;28;8846;-57
2023/08/31 06:35:52;;;;;;;;;12.50;12.00;;;;;13.56;77.92;99247.91;5093619;28;8903;-57
2023/08/31 06:38:20;;;;;;;;;10.00;9.50;;;;;13.64;77.57;99239.09;5094014;28;8845;-57
2023/08/31 06:40:48;;;;;;;;;15.00;12.00;;;;;13.71;77.60;99237.47;5093665;28;8864;-57
2023/08/31 06:43:15;;;;;;;;;14.75;13.00;;;;;13.78;77.49;99243.84;5094468;28;8830;-57
2023/08/31 06:45:43;;;;;;;;;12.75;12.00;;;;;13.79;77.52;99242.84;5094671;28;8939;-57
2023/08/31 06:48:11;;;;;;;;;13.25;10.75;;;;;13.78;77.81;99244.72;5094064;28;8876;-57
2023/08/31 06:50:38;;;;;;;;;10.25;10.00;;;;;13.84;77.87;99240.56;5094652;28;8927;-56
2023/08/31 06:53:06;;;;;;;;;7.75;6.75;;;;;13.93;77.18;99244.94;5095377;28;8830;-57
2023/08/31 06:55:34;;;;;;;;;13.00;12.25;;;;;14.04;77.01;99247.34;5095095;28;8830;-57
2023/08/31 06:58:02;;;;;;;;;16.00;12.25;;;;;14.09;76.98;99251.22;5095397;28;9503;-57
2023/08/31 07:00:30;;;;;;;;;12.00;12.00;;;;;14.08;76.87;99252.22;5094967;28;9544;-59
2023/08/31 07:02:58;;;;;;;;;10.25;9.75;;;;;14.09;77.61;99255.72;5094647;28;8852;-57
2023/08/31 07:05:25;;;;;;;;;11.00;11.00;;;;;14.08;77.05;99251.38;5094595;28;9824;-56
2023/08/31 07:07:54;;;;;;;;;12.25;12.00;;;;;14.10;77.66;99254.72;5094423;28;8830;-57
2023/08/31 07:10:22;;;;;;;;;6.75;5.50;;;;;14.20;77.32;99261.66;5094308;28;8898;-58
2023/08/31 07:12:50;;;;;;;;;12.00;10.50;;;;;14.30;76.91;99262.38;5094899;28;8892;-58
2023/08/31 07:15:17;;;;;;;;;11.50;8.00;;;;;14.43;76.41;99251.19;5094235;28;8992;-58
2023/08/31 07:17:47;;;;;;;;;8.00;8.00;;;;;14.55;76.82;99258.78;5094111;28;8818;-59
2023/08/31 07:20:14;;;;;;;;;12.50;9.50;;;;;14.65;76.27;99255.94;5094160;28;8834;-56
2023/08/31 07:22:42;;;;;;;;;10.50;10.00;;;;;14.74;76.27;99252.28;5094137;28;8973;-58
2023/08/31 07:25:11;;;;;;;;;10.00;7.50;;;;;14.81;75.85;99255.97;5093645;28;8822;-59
2023/08/31 07:27:39;;;;;;;;;5.75;5.50;;;;;14.88;75.84;99257.81;5093670;28;8845;-56
2023/08/31 07:30:07;;;;;;;;;7.00;6.75;;;;;14.94;75.49;99257.16;5093845;28;8896;-57
2023/08/31 07:32:35;;;;;;;;;7.00;6.50;;;;;15.02;75.60;99259.03;5093881;28;8826;-57
2023/08/31 07:35:04;;;;;;;;;9.50;9.25;;;;;15.07;75.34;99262.00;5094273;28;8868;-59
2023/08/31 07:37:32;;;;;;;;;6.75;6.25;;;;;15.12;75.58;99263.22;5093712;28;8838;-58
2023/08/31 07:40:00;;;;;;;;;6.25;6.00;;;;;15.20;75.13;99263.22;5093872;28;8841;-57
2023/08/31 07:42:29;;;;;;;;;9.50;8.75;;;;;15.28;74.91;99268.59;5093786;28;9518;-57
2023/08/31 07:44:57;;;;;;;;;8.50;8.50;;;;;15.37;75.15;99264.06;5093460;28;8948;-59
2023/08/31 07:47:25;;;;;;;;;7.50;7.00;;;;;15.43;74.61;99269.63;5092991;28;8834;-57
2023/08/31 07:49:52;;;;;;;;;6.75;6.75;;;;;15.48;74.44;99259.19;5093515;28;8957;-59
2023/08/31 07:52:20;;;;;;;;;6.00;6.00;;;;;15.55;74.95;99257.50;5093120;28;8822;-59
2023/08/31 07:54:48;;;;;;;;;6.25;5.50;;;;;15.65;74.60;99260.00;5092886;28;8876;-57
2023/08/31 07:57:16;;;;;;;;;6.75;6.50;;;;;15.73;74.10;99266.22;5093289;28;8834;-59
2023/08/31 07:59:44;;;;;;;;;9.25;9.25;;;;;15.82;74.30;99265.19;5094078;28;8834;-57
2023/08/31 08:02:12;;;;;;;;;9.00;7.00;;;;;15.90;74.13;99261.63;5093887;28;8842;-59
2023/08/31 08:04:40;;;;;;;;;7.00;6.00;;;;;15.97;73.76;99266.16;5093473;28;8837;-58
2023/08/31 08:07:08;;;;;;;;;5.50;5.50;;;;;16.02;74.04;99277.22;5093167;28;9495;-58
2023/08/31 08:09:37;;;;;;;;;6.50;6.50;;;;;16.08;73.47;99275.69;5093060;28;8838;-58
2023/08/31 08:12:05;;;;;;;;;7.00;7.00;;;;;16.15;73.37;99273.97;5093002;28;8830;-57
2023/08/31 08:14:33;;;;;;;;;6.80;6.80;;;;;16.25;73.45;99273.59;5093027;28;9882;-59
2023/08/31 08:17:01;;;;;;;;;7.00;6.00;;;;;16.38;73.01;99277.63;5093171;28;8854;-57
2023/08/31 08:19:28;;;;;;;;;4.00;3.60;;;;;16.52;72.65;99278.56;5092853;28;8846;-58
2023/08/31 08:21:56;;;;;;;;;7.00;6.40;;;;;16.70;72.67;99287.19;5093511;28;8841;-59
2023/08/31 08:24:24;;;;;;;;;3.00;2.60;;;;;16.81;72.16;99292.16;5093470;28;8834;-58
2023/08/31 08:26:52;;;;;;;;;4.00;3.60;;;;;16.87;71.95;99294.13;5093288;28;8834;-57
2023/08/31 08:29:20;;;;;;;;;4.00;4.00;;;;;16.96;71.71;99284.16;5092379;28;8841;-57
2023/08/31 08:31:48;;;;;;;;;1.40;1.40;;;;;17.02;71.97;99294.22;5092788;28;8826;-58
2023/08/31 08:34:16;;;;;;;;;3.80;3.80;;;;;17.05;72.05;99283.94;5092800;28;8919;-56
2023/08/31 08:36:44;;;;;;;;;4.00;3.80;;;;;17.11;71.46;99294.00;5092912;28;8837;-58
2023/08/31 08:39:12;;;;;;;;;6.00;6.00;;;;;17.14;71.43;99290.09;5092951;28;8873;-58
2023/08/31 08:41:39;;;;;;;;;7.60;6.20;;;;;17.17;71.36;99298.63;5092901;28;8838;-58
2023/08/31 08:44:07;;;;;;;;;3.60;3.60;;;;;17.21;70.98;99299.13;5096600;28;8841;-58
2023/08/31 08:46:35;;;;;;;;;4.00;4.00;;;;;17.26;71.13;99305.66;5097247;28;8838;-59
2023/08/31 08:49:03;;;;;;;;;3.60;3.40;;;;;17.28;70.75;99298.22;5097000;28;8918;-60
2023/08/31 08:51:32;;;;;;;;;4.40;4.00;;;;;17.32;70.85;99298.72;5097022;28;8822;-58
2023/08/31 08:54:00;;;;;;;;;3.00;3.00;;;;;17.37;70.76;99302.56;5096841;28;8910;-59
2023/08/31 08:56:27;;;;;;;;;3.80;3.40;;;;;17.48;70.38;99301.28;5097161;28;8966;-59
2023/08/31 08:58:56;;;;;;;;;3.80;3.80;;;;;17.58;70.18;99296.47;5097002;28;9522;-59
2023/08/31 09:01:24;;;;;;;;;3.00;3.00;;;;;17.69;69.88;99304.97;5096627;28;9712;-58
2023/08/31 09:03:52;;;;;;;;;2.20;2.20;;;;;17.82;69.73;99304.31;5096420;28;8837;-58
2023/08/31 09:06:20;;;;;;;;;4.00;4.00;;;;;17.97;69.00;99311.44;5096274;28;8847;-59
2023/08/31 09:08:48;;;;;;;;;1.00;1.00;;;;;18.02;69.04;99309.03;5095877;28;8859;-60
2023/08/31 09:11:16;;;;;;;;;3.00;3.00;;;;;18.13;69.04;99297.78;5095490;28;8841;-57
2023/08/31 09:13:45;;;;;;;;;3.00;3.00;;;;;18.20;68.96;99298.72;5096083;28;8838;-57
2023/08/31 09:16:13;;;;;;;;;3.00;3.00;;;;;18.31;68.24;99302.84;5096219;28;8964;-59
2023/08/31 09:18:41;;;;;;;;;3.00;3.00;;;;;18.42;68.40;99303.19;5095870;28;8830;-58
2023/08/31 09:21:08;;;;;;;;;3.40;3.40;;;;;18.37;68.23;99311.00;5096244;28;8837;-58
2023/08/31 09:23:36;;;;;;;;;4.00;4.00;;;;;18.33;68.52;99303.47;5096158;28;8848;-57
2023/08/31 09:26:04;;;;;;;;;1.00;1.00;;;;;18.31;68.23;99298.28;5096547;28;8822;-60
2023/08/31 09:28:32;;;;;;;;;6.00;3.00;;;;;18.37;68.52;99299.41;5096032;28;8881;-59
2023/08/31 09:31:00;;;;;;;;;2.60;2.60;;;;;18.47;67.74;99306.19;5096177;28;8810;-60
2023/08/31 09:33:28;;;;;;;;;4.20;3.80;;;;;18.58;67.74;99313.78;5095928;28;8842;-60
2023/08/31 09:35:56;;;;;;;;;3.40;3.40;;;;;18.65;67.97;99313.84;5096164;28;8833;-57
2023/08/31 09:38:24;;;;;;;;;3.00;3.00;;;;;18.70;67.58;99309.59;5095934;28;8830;-58
2023/08/31 09:40:51;;;;;;;;;4.80;3.40;;;;;18.76;67.23;99303.41;5096022;28;8968;-58
2023/08/31 09:43:19;;;;;;;;;3.80;3.00;;;;;18.93;67.06;99317.53;5095516;28;9638;-58
2023/08/31 09:45:47;;;;;;;;;4.00;4.00;;;;;19.06;66.10;99318.50;5095824;28;8845;-58
2023/08/31 09:48:16;;;;;;;;;3.60;3.00;;;;;19.13;66.52;99324.00;5095310;28;8956;-57
2023/08/31 09:50:44;;;;;;;;;4.00;4.00;;;;;19.17;66.07;99312.63;5095716;28;8853;-58
2023/08/31 09:53:12;;;;;;;;;3.40;3.40;;;;;19.26;65.91;99313.38;5094873;28;8957;-58
2023/08/31 09:55:40;;;;;;;;;1.00;1.00;;;;;19.40;65.44;99315.16;5094452;28;8838;-57
2023/08/31 09:58:08;;;;;;;;;3.80;3.20;;;;;19.56;65.53;99314.91;5094604;28;8822;-58
2023/08/31 10:00:43;;;;;;;;;1.40;1.40;;;;;19.56;65.91;99309.50;5094806;28;8906;-58
2023/08/31 10:03:14;;;;;;;;;3.00;3.00;;;;;20.11;64.50;99321.19;5094041;28;8862;-58
2023/08/31 10:05:45;;;;;;;;;3.00;3.00;;;;;21.11;62.99;99309.66;5095293;28;8838;-58
2023/08/31 10:08:13;;;;;;;;;2.80;1.80;;;;;21.90;61.34;99311.41;5095574;28;8880;-59
2023/08/31 10:10:41;;;;;;;;;2.00;2.00;;;;;22.54;60.08;99312.41;5095602;28;8822;-58
2023/08/31 10:13:10;;;;;;;;;1.00;1.00;;;;;22.88;59.15;99312.06;5095973;28;8834;-58
2023/08/31 10:15:39;;;;;;;;;2.00;2.00;;;;;23.07;58.50;99316.56;5095873;28;8834;-58
2023/08/31 10:18:07;;;;;;;;;1.00;1.00;;;;;23.20;58.36;99316.50;5096481;28;8853;-58
2023/08/31 10:20:35;;;;;;;;;0.00;0.00;;;;;23.67;57.59;99319.53;5095610;28;8830;-58
2023/08/31 10:23:03;;;;;;;;;1.60;1.60;;;;;23.76;57.30;99317.41;5095515;28;9825;-58
2023/08/31 10:25:31;;;;;;;;;1.60;1.20;;;;;23.50;57.42;99310.25;5095263;28;8903;-58
2023/08/31 10:27:59;;;;;;;;;2.00;1.80;;;;;23.72;57.65;99305.28;5094663;28;8833;-57
2023/08/31 10:30:27;;;;;;;;;2.00;1.80;;;;;24.23;56.41;99308.63;5094684;28;8821;-59
2023/08/31 10:32:55;;;;;;;;;4.00;2.40;;;;;24.64;55.48;99306.94;5093759;28;8841;-58
2023/08/31 10:35:22;;;;;;;;;1.00;0.20;;;;;24.81;55.17;99308.00;5094746;28;8834;-59
2023/08/31 10:37:51;;;;;;;;;2.00;2.00;;;;;24.87;54.44;99298.91;5094750;28;8952;-58
2023/08/31 10:40:19;;;;;;;;;2.00;1.80;;;;;24.83;55.00;99305.06;5094686;28;8826;-58
2023/08/31 10:42:47;;;;;;;;;1.00;1.00;;;;;24.98;54.78;99297.31;5094611;28;9527;-58
2023/08/31 10:45:15;;;;;;;;;1.00;1.00;;;;;25.05;54.62;99300.78;5094125;28;8856;-59
2023/08/31 10:47:43;;;;;;;;;2.00;2.00;;;;;25.00;54.66;99292.47;5093764;28;8840;-59
2023/08/31 10:50:13;;;;;;;;;1.80;1.80;;;;;24.96;54.69;99297.53;5093369;28;8822;-57
2023/08/31 10:52:41;;;;;;;;;2.00;1.20;;;;;24.99;54.28;99299.81;5093782;28;8838;-59
2023/08/31 10:55:09;;;;;;;;;1.40;1.40;;;;;24.98;54.31;99300.88;5093534;28;8826;-59
2023/08/31 10:57:39;;;;;;;;;1.40;1.00;;;;;25.00;53.65;99308.81;5093369;28;8857;-58
2023/08/31 11:00:07;;;;;;;;;4.80;3.80;;;;;25.00;53.73;99293.31;5093220;28;8860;-58
2023/08/31 11:02:35;;;;;;;;;0.80;0.80;;;;;25.20;53.58;99306.66;5093315;28;8881;-58
2023/08/31 11:05:04;;;;;;;;;1.00;1.00;;;;;25.51;52.26;99298.25;5090856;28;8826;-58
2023/08/31 11:07:34;;;;;;;;;1.00;1.00;;;;;25.68;52.11;99311.00;5091422;28;8869;-59
2023/08/31 11:10:04;;;;;;;;;1.00;1.00;;;;;25.69;51.83;99301.75;5091322;28;8840;-58
2023/08/31 11:12:32;;;;;;;;;2.00;2.00;;;;;25.54;52.13;99306.00;5091800;28;8841;-58
2023/08/31 11:15:00;;;;;;;;;0.60;0.60;;;;;25.24;53.00;99306.00;5092237;28;8850;-58
2023/08/31 11:17:29;;;;;;;;;1.00;1.00;;;;;25.45;51.54;99310.94;5091933;28;8934;-58
2023/08/31 11:19:57;;;;;;;;;3.00;2.60;;;;;25.78;50.89;99303.91;5091949;28;8838;-59
2023/08/31 11:22:25;;;;;;;;;2.00;1.20;;;;;26.13;50.05;99312.16;5092234;28;8853;-58
2023/08/31 11:24:53;;;;;;;;;0.60;0.60;;;;;26.53;49.55;99296.72;5093199;28;8830;-58
2023/08/31 11:27:21;;;;;;;;;2.00;1.00;;;;;26.99;48.34;99300.19;5092168;28;8923;-59
2023/08/31 11:29:49;;;;;;;;;1.00;1.00;;;;;27.38;48.01;99307.56;5092829;28;9200;-58
2023/08/31 11:32:17;;;;;;;;;3.00;2.00;;;;;27.35;48.10;99302.59;5093186;28;8977;-59
2023/08/31 11:34:45;;;;;;;;;2.00;2.00;;;;;26.67;48.92;99301.72;5092916;28;8842;-58
2023/08/31 11:37:15;;;;;;;;;1.40;1.40;;;;;25.65;50.94;99311.47;5092704;28;8825;-58
2023/08/31 11:39:43;;;;;;;;;1.20;1.20;;;;;26.02;50.31;99302.91;5093530;28;8865;-59
2023/08/31 11:42:11;;;;;;;;;1.00;1.00;;;;;26.60;49.18;99294.69;5093197;28;8830;-58